Airfield :
LOGIN :

Register | Disclaimer

   EN    FR    IT 

 










Legend :    VFR   Marginal VFR   IFR   Intensive IFR   Very Intensive IFR
Visi :
Ceiling :
>= 8 km
>= 3000ft
5 to 8 km
1000 to 3000 ft
1500m to 5 km
500 to 1000 ft
800 to 1500m
200 to 500 ft
< 800m
< 200 ft
Symbols :   Thunderstorms  Fog  Heavy snow  Heavy precipitations  Wind > 20 kt
SIGMETs :     Misc.  Thunderstorms  Icing  Turbulence  Mountain Waves  Volcanic Ashes






- Airport Elevation : 220 ft
- IATA code : CWL


EGFF - Cardiff Rhoose

CURRENT METAR :
  • 241150Z AUTO 26019G29KT 9999 OVC010 11/10 Q1007

EXPIRED METARs :
  • 241120Z AUTO 25019KT 6000 -RA OVC010/// //////TCU 10/10 Q1007 RERA
  • 241050Z AUTO 26020G30KT 4900 RA OVC011/// //////TCU 10/10 Q1007
  • 241020Z AUTO 25021KT 4100 RA OVC012/// //////CB 10/09 Q1007 RERA
  • 240950Z AUTO 25022G32KT 8000 -RA BKN015/// OVC022/// //////CB 10/09 Q1007
  • 240920Z 25021G31KT 7000 -RA BKN015TCU OVC020 10/09 Q1008 RERA

TAF AMD TAF EGFF
Valid from the 24 at 12:00 until the 25 at 12:00 UTC


241156Z 2412/2512 25020G30KT 4000 RA BKN009
BECMG 2412/2415 28015G25KT 9999 NSW FEW030
PROB40
TEMPO 2412/2416 25025G40KT
PROB30
TEMPO 2420/2505 7000 SHRA BKN014
TEMPO 2505/2512 7000 SHRA
PROB30
TEMPO 2505/2512 26020G35KT 4000 +SHRAGS BKN010 BKN016CB
ATIS : +44 1446 729 319



MET'MAP, your aeronautical weather chart ! - Copyright ORBIFLY December 2007 - Disclaimer

ORBIFLY MET'MAP TEAM :

Programming & Development : Alexandra Zaïnal
Concept & original design : Baudouin d'Aumeries
Assistance for programming : Marc-Olivier Méhu
Technical & hardware support : Manuel Goepfert

Contact : metmap@orbifly.com




SOURCES & CREDITS :

   NOAA